sensor_id;sensor_type;location;lat;lon;timestamp;P1;durP1;ratioP1;P2;durP2;ratioP2
78489;SDS011;67776;52.012;4.736;2023-11-21T00:02:15;14.10;;;3.70;;
78489;SDS011;67776;52.012;4.736;2023-11-21T00:04:40;9.20;;;3.60;;
78489;SDS011;67776;52.012;4.736;2023-11-21T00:07:05;12.77;;;4.00;;
78489;SDS011;67776;52.012;4.736;2023-11-21T00:09:31;9.93;;;3.90;;
78489;SDS011;67776;52.012;4.736;2023-11-21T00:11:56;25.45;;;4.18;;
78489;SDS011;67776;52.012;4.736;2023-11-21T00:14:22;15.90;;;4.23;;
78489;SDS011;67776;52.012;4.736;2023-11-21T00:16:48;14.45;;;4.20;;
78489;SDS011;67776;52.012;4.736;2023-11-21T00:19:13;12.60;;;4.03;;
78489;SDS011;67776;52.012;4.736;2023-11-21T00:21:39;14.93;;;4.32;;
78489;SDS011;67776;52.012;4.736;2023-11-21T00:24:04;15.73;;;4.40;;
78489;SDS011;67776;52.012;4.736;2023-11-21T00:26:30;12.07;;;4.43;;
78489;SDS011;67776;52.012;4.736;2023-11-21T00:29:01;12.45;;;4.65;;
78489;SDS011;67776;52.012;4.736;2023-11-21T00:31:26;13.53;;;4.77;;
78489;SDS011;67776;52.012;4.736;2023-11-21T00:33:52;13.13;;;5.50;;
78489;SDS011;67776;52.012;4.736;2023-11-21T00:36:19;14.88;;;5.28;;
78489;SDS011;67776;52.012;4.736;2023-11-21T00:38:44;12.57;;;5.00;;
78489;SDS011;67776;52.012;4.736;2023-11-21T00:41:09;13.90;;;5.07;;
78489;SDS011;67776;52.012;4.736;2023-11-21T00:43:34;13.83;;;5.60;;
78489;SDS011;67776;52.012;4.736;2023-11-21T00:46:03;14.13;;;5.70;;
78489;SDS011;67776;52.012;4.736;2023-11-21T00:48:29;14.07;;;5.95;;
78489;SDS011;67776;52.012;4.736;2023-11-21T00:50:54;18.00;;;5.83;;
78489;SDS011;67776;52.012;4.736;2023-11-21T00:53:21;18.58;;;6.55;;
78489;SDS011;67776;52.012;4.736;2023-11-21T00:55:46;18.00;;;7.20;;
78489;SDS011;67776;52.012;4.736;2023-11-21T00:58:12;15.40;;;6.03;;
78489;SDS011;67776;52.012;4.736;2023-11-21T01:00:38;13.37;;;5.60;;
78489;SDS011;67776;52.012;4.736;2023-11-21T01:03:04;15.35;;;5.95;;
78489;SDS011;67776;52.012;4.736;2023-11-21T01:05:30;17.03;;;6.33;;
78489;SDS011;67776;52.012;4.736;2023-11-21T01:07:55;20.90;;;5.93;;
78489;SDS011;67776;52.012;4.736;2023-11-21T01:10:20;15.00;;;5.90;;
78489;SDS011;67776;52.012;4.736;2023-11-21T01:12:46;12.70;;;5.27;;
78489;SDS011;67776;52.012;4.736;2023-11-21T01:15:11;12.97;;;5.70;;
78489;SDS011;67776;52.012;4.736;2023-11-21T01:17:40;17.80;;;6.18;;
78489;SDS011;67776;52.012;4.736;2023-11-21T01:20:06;15.07;;;5.83;;
78489;SDS011;67776;52.012;4.736;2023-11-21T01:22:38;19.98;;;5.95;;
78489;SDS011;67776;52.012;4.736;2023-11-21T01:25:04;18.40;;;5.97;;
78489;SDS011;67776;52.012;4.736;2023-11-21T01:27:32;15.13;;;5.83;;
78489;SDS011;67776;52.012;4.736;2023-11-21T01:30:01;19.73;;;5.78;;
78489;SDS011;67776;52.012;4.736;2023-11-21T01:32:27;15.90;;;5.63;;
78489;SDS011;67776;52.012;4.736;2023-11-21T01:34:53;12.73;;;5.63;;
78489;SDS011;67776;52.012;4.736;2023-11-21T01:37:19;14.03;;;4.97;;
78489;SDS011;67776;52.012;4.736;2023-11-21T01:39:44;15.50;;;6.03;;
78489;SDS011;67776;52.012;4.736;2023-11-21T01:42:09;18.13;;;5.93;;
78489;SDS011;67776;52.012;4.736;2023-11-21T01:44:36;16.52;;;5.78;;
78489;SDS011;67776;52.012;4.736;2023-11-21T01:47:01;14.60;;;5.90;;
78489;SDS011;67776;52.012;4.736;2023-11-21T01:49:29;19.67;;;6.25;;
78489;SDS011;67776;52.012;4.736;2023-11-21T01:51:57;18.08;;;5.40;;
78489;SDS011;67776;52.012;4.736;2023-11-21T01:54:22;14.20;;;5.33;;
78489;SDS011;67776;52.012;4.736;2023-11-21T01:56:48;15.32;;;6.25;;
78489;SDS011;67776;52.012;4.736;2023-11-21T01:59:19;18.27;;;6.03;;
78489;SDS011;67776;52.012;4.736;2023-11-21T02:01:49;17.60;;;5.80;;
78489;SDS011;67776;52.012;4.736;2023-11-21T02:04:15;13.65;;;5.63;;
78489;SDS011;67776;52.012;4.736;2023-11-21T02:06:40;16.58;;;6.25;;
78489;SDS011;67776;52.012;4.736;2023-11-21T02:09:06;16.13;;;6.80;;
78489;SDS011;67776;52.012;4.736;2023-11-21T02:11:31;19.17;;;6.23;;
78489;SDS011;67776;52.012;4.736;2023-11-21T02:13:59;17.02;;;6.00;;
78489;SDS011;67776;52.012;4.736;2023-11-21T02:16:25;15.00;;;5.50;;
78489;SDS011;67776;52.012;4.736;2023-11-21T02:18:52;17.97;;;5.77;;
78489;SDS011;67776;52.012;4.736;2023-11-21T02:21:18;15.15;;;5.30;;
78489;SDS011;67776;52.012;4.736;2023-11-21T02:23:44;16.02;;;5.00;;
78489;SDS011;67776;52.012;4.736;2023-11-21T02:26:11;17.63;;;5.75;;
78489;SDS011;67776;52.012;4.736;2023-11-21T02:28:37;15.23;;;6.07;;
78489;SDS011;67776;52.012;4.736;2023-11-21T02:31:03;19.15;;;5.68;;
78489;SDS011;67776;52.012;4.736;2023-11-21T02:33:29;19.63;;;6.03;;
78489;SDS011;67776;52.012;4.736;2023-11-21T02:35:58;18.63;;;6.68;;
78489;SDS011;67776;52.012;4.736;2023-11-21T02:38:24;14.97;;;5.07;;
78489;SDS011;67776;52.012;4.736;2023-11-21T02:40:49;19.17;;;5.78;;
78489;SDS011;67776;52.012;4.736;2023-11-21T02:43:15;11.63;;;4.93;;
78489;SDS011;67776;52.012;4.736;2023-11-21T02:45:40;12.80;;;5.13;;
78489;SDS011;67776;52.012;4.736;2023-11-21T02:48:06;12.88;;;4.95;;
78489;SDS011;67776;52.012;4.736;2023-11-21T02:50:32;14.80;;;5.20;;
78489;SDS011;67776;52.012;4.736;2023-11-21T02:52:57;13.10;;;4.93;;
78489;SDS011;67776;52.012;4.736;2023-11-21T02:55:25;18.17;;;5.70;;
78489;SDS011;67776;52.012;4.736;2023-11-21T02:57:51;18.80;;;6.22;;
78489;SDS011;67776;52.012;4.736;2023-11-21T03:00:16;16.83;;;5.73;;
78489;SDS011;67776;52.012;4.736;2023-11-21T03:02:42;17.73;;;5.60;;
78489;SDS011;67776;52.012;4.736;2023-11-21T03:05:08;17.42;;;5.35;;
78489;SDS011;67776;52.012;4.736;2023-11-21T03:07:35;21.75;;;5.55;;
78489;SDS011;67776;52.012;4.736;2023-11-21T03:10:02;15.88;;;5.30;;
78489;SDS011;67776;52.012;4.736;2023-11-21T03:12:29;18.02;;;5.43;;
78489;SDS011;67776;52.012;4.736;2023-11-21T03:14:54;14.10;;;5.57;;
78489;SDS011;67776;52.012;4.736;2023-11-21T03:17:19;13.60;;;5.13;;
78489;SDS011;67776;52.012;4.736;2023-11-21T03:19:45;13.07;;;5.07;;
78489;SDS011;67776;52.012;4.736;2023-11-21T03:22:11;15.63;;;5.57;;
78489;SDS011;67776;52.012;4.736;2023-11-21T03:24:36;17.83;;;5.37;;
78489;SDS011;67776;52.012;4.736;2023-11-21T03:27:02;17.17;;;5.60;;
78489;SDS011;67776;52.012;4.736;2023-11-21T03:29:29;15.07;;;5.30;;
78489;SDS011;67776;52.012;4.736;2023-11-21T03:31:54;22.57;;;5.63;;
78489;SDS011;67776;52.012;4.736;2023-11-21T03:34:22;14.77;;;5.13;;
78489;SDS011;67776;52.012;4.736;2023-11-21T03:36:50;15.75;;;5.63;;
78489;SDS011;67776;52.012;4.736;2023-11-21T03:39:15;16.27;;;5.73;;
78489;SDS011;67776;52.012;4.736;2023-11-21T03:41:40;15.63;;;4.90;;
78489;SDS011;67776;52.012;4.736;2023-11-21T03:44:06;14.87;;;5.70;;
78489;SDS011;67776;52.012;4.736;2023-11-21T03:46:31;18.73;;;5.40;;
78489;SDS011;67776;52.012;4.736;2023-11-21T03:48:56;15.83;;;5.07;;
78489;SDS011;67776;52.012;4.736;2023-11-21T03:51:22;19.17;;;5.67;;
78489;SDS011;67776;52.012;4.736;2023-11-21T03:53:47;16.80;;;5.30;;
78489;SDS011;67776;52.012;4.736;2023-11-21T03:56:13;14.63;;;4.80;;
78489;SDS011;67776;52.012;4.736;2023-11-21T03:58:39;19.05;;;5.57;;
78489;SDS011;67776;52.012;4.736;2023-11-21T04:01:04;17.67;;;5.30;;
78489;SDS011;67776;52.012;4.736;2023-11-21T04:03:29;14.50;;;4.80;;
78489;SDS011;67776;52.012;4.736;2023-11-21T04:05:55;14.87;;;5.27;;
78489;SDS011;67776;52.012;4.736;2023-11-21T04:08:20;15.20;;;4.60;;
78489;SDS011;67776;52.012;4.736;2023-11-21T04:10:45;16.27;;;4.73;;
78489;SDS011;67776;52.012;4.736;2023-11-21T04:13:10;21.80;;;6.20;;
78489;SDS011;67776;52.012;4.736;2023-11-21T04:15:36;14.57;;;5.20;;
78489;SDS011;67776;52.012;4.736;2023-11-21T04:18:01;15.30;;;5.37;;
78489;SDS011;67776;52.012;4.736;2023-11-21T04:20:26;16.13;;;4.60;;
78489;SDS011;67776;52.012;4.736;2023-11-21T04:22:52;13.80;;;5.37;;
78489;SDS011;67776;52.012;4.736;2023-11-21T04:25:17;18.07;;;5.40;;
78489;SDS011;67776;52.012;4.736;2023-11-21T04:27:43;18.05;;;5.65;;
78489;SDS011;67776;52.012;4.736;2023-11-21T04:30:10;18.90;;;5.03;;
78489;SDS011;67776;52.012;4.736;2023-11-21T04:32:36;12.00;;;4.77;;
78489;SDS011;67776;52.012;4.736;2023-11-21T04:35:01;14.80;;;5.70;;
78489;SDS011;67776;52.012;4.736;2023-11-21T04:37:28;14.37;;;4.77;;
78489;SDS011;67776;52.012;4.736;2023-11-21T04:39:54;13.97;;;5.10;;
78489;SDS011;67776;52.012;4.736;2023-11-21T04:42:19;13.77;;;4.70;;
78489;SDS011;67776;52.012;4.736;2023-11-21T04:44:44;15.03;;;5.20;;
78489;SDS011;67776;52.012;4.736;2023-11-21T04:47:10;14.03;;;5.50;;
78489;SDS011;67776;52.012;4.736;2023-11-21T04:49:35;18.07;;;5.60;;
78489;SDS011;67776;52.012;4.736;2023-11-21T04:52:01;20.90;;;5.77;;
78489;SDS011;67776;52.012;4.736;2023-11-21T04:54:26;15.20;;;5.88;;
78489;SDS011;67776;52.012;4.736;2023-11-21T04:56:52;18.07;;;5.70;;
78489;SDS011;67776;52.012;4.736;2023-11-21T04:59:17;15.63;;;4.40;;
78489;SDS011;67776;52.012;4.736;2023-11-21T05:01:42;15.90;;;4.67;;
78489;SDS011;67776;52.012;4.736;2023-11-21T05:04:08;15.97;;;5.30;;
78489;SDS011;67776;52.012;4.736;2023-11-21T05:06:33;15.63;;;5.57;;
78489;SDS011;67776;52.012;4.736;2023-11-21T05:08:59;11.57;;;4.90;;
78489;SDS011;67776;52.012;4.736;2023-11-21T05:11:27;16.13;;;5.53;;
78489;SDS011;67776;52.012;4.736;2023-11-21T05:13:54;15.23;;;5.47;;
78489;SDS011;67776;52.012;4.736;2023-11-21T05:16:21;17.40;;;5.63;;
78489;SDS011;67776;52.012;4.736;2023-11-21T05:18:47;21.40;;;5.47;;
78489;SDS011;67776;52.012;4.736;2023-11-21T05:21:12;16.10;;;5.73;;
78489;SDS011;67776;52.012;4.736;2023-11-21T05:23:37;13.43;;;5.60;;
78489;SDS011;67776;52.012;4.736;2023-11-21T05:26:03;15.27;;;6.10;;
78489;SDS011;67776;52.012;4.736;2023-11-21T05:28:28;13.82;;;5.13;;
78489;SDS011;67776;52.012;4.736;2023-11-21T05:30:54;12.70;;;5.07;;
78489;SDS011;67776;52.012;4.736;2023-11-21T05:33:19;13.47;;;5.03;;
78489;SDS011;67776;52.012;4.736;2023-11-21T05:35:45;13.93;;;5.50;;
78489;SDS011;67776;52.012;4.736;2023-11-21T05:38:10;12.33;;;5.23;;
78489;SDS011;67776;52.012;4.736;2023-11-21T05:40:36;13.68;;;5.63;;
78489;SDS011;67776;52.012;4.736;2023-11-21T05:43:02;14.67;;;5.10;;
78489;SDS011;67776;52.012;4.736;2023-11-21T05:45:27;15.57;;;5.20;;
78489;SDS011;67776;52.012;4.736;2023-11-21T05:47:53;14.60;;;5.40;;
78489;SDS011;67776;52.012;4.736;2023-11-21T05:50:19;13.50;;;5.20;;
78489;SDS011;67776;52.012;4.736;2023-11-21T05:52:45;12.47;;;5.50;;
78489;SDS011;67776;52.012;4.736;2023-11-21T05:55:11;12.88;;;5.20;;
78489;SDS011;67776;52.012;4.736;2023-11-21T05:57:37;14.70;;;5.07;;
78489;SDS011;67776;52.012;4.736;2023-11-21T06:00:04;11.63;;;4.13;;
78489;SDS011;67776;52.012;4.736;2023-11-21T06:02:40;11.00;;;4.22;;
78489;SDS011;67776;52.012;4.736;2023-11-21T06:05:06;13.68;;;4.55;;
78489;SDS011;67776;52.012;4.736;2023-11-21T06:07:33;10.70;;;4.40;;
78489;SDS011;67776;52.012;4.736;2023-11-21T06:09:58;9.88;;;3.83;;
78489;SDS011;67776;52.012;4.736;2023-11-21T06:12:24;16.00;;;4.13;;
78489;SDS011;67776;52.012;4.736;2023-11-21T06:14:50;11.20;;;3.67;;
78489;SDS011;67776;52.012;4.736;2023-11-21T06:17:16;9.45;;;3.45;;
78489;SDS011;67776;52.012;4.736;2023-11-21T06:19:41;10.93;;;3.90;;
78489;SDS011;67776;52.012;4.736;2023-11-21T06:22:06;13.63;;;3.80;;
78489;SDS011;67776;52.012;4.736;2023-11-21T06:24:33;9.52;;;3.55;;
78489;SDS011;67776;52.012;4.736;2023-11-21T06:26:58;11.43;;;3.47;;
78489;SDS011;67776;52.012;4.736;2023-11-21T06:29:23;12.13;;;3.73;;
78489;SDS011;67776;52.012;4.736;2023-11-21T06:31:49;13.80;;;4.00;;
78489;SDS011;67776;52.012;4.736;2023-11-21T06:34:14;13.32;;;4.05;;
78489;SDS011;67776;52.012;4.736;2023-11-21T06:36:39;9.83;;;3.70;;
78489;SDS011;67776;52.012;4.736;2023-11-21T06:39:05;10.90;;;3.63;;
78489;SDS011;67776;52.012;4.736;2023-11-21T06:41:33;9.35;;;3.80;;
78489;SDS011;67776;52.012;4.736;2023-11-21T06:43:59;8.77;;;3.20;;
78489;SDS011;67776;52.012;4.736;2023-11-21T06:46:25;8.23;;;3.40;;
78489;SDS011;67776;52.012;4.736;2023-11-21T06:48:50;13.20;;;3.67;;
78489;SDS011;67776;52.012;4.736;2023-11-21T06:51:15;9.13;;;3.50;;
78489;SDS011;67776;52.012;4.736;2023-11-21T06:53:41;10.57;;;3.30;;
78489;SDS011;67776;52.012;4.736;2023-11-21T06:56:16;11.02;;;3.78;;
78489;SDS011;67776;52.012;4.736;2023-11-21T06:58:43;12.53;;;3.50;;
78489;SDS011;67776;52.012;4.736;2023-11-21T07:01:10;10.65;;;3.35;;
78489;SDS011;67776;52.012;4.736;2023-11-21T07:03:36;8.18;;;3.17;;
78489;SDS011;67776;52.012;4.736;2023-11-21T07:06:02;7.40;;;3.17;;
78489;SDS011;67776;52.012;4.736;2023-11-21T07:08:28;8.73;;;3.35;;
78489;SDS011;67776;52.012;4.736;2023-11-21T07:10:53;9.30;;;3.37;;
78489;SDS011;67776;52.012;4.736;2023-11-21T07:13:18;9.40;;;3.43;;
78489;SDS011;67776;52.012;4.736;2023-11-21T07:15:44;7.90;;;3.33;;
78489;SDS011;67776;52.012;4.736;2023-11-21T07:18:09;10.83;;;3.33;;
78489;SDS011;67776;52.012;4.736;2023-11-21T07:20:34;9.38;;;3.38;;
78489;SDS011;67776;52.012;4.736;2023-11-21T07:22:59;12.07;;;3.33;;
78489;SDS011;67776;52.012;4.736;2023-11-21T07:25:26;12.60;;;3.13;;
78489;SDS011;67776;52.012;4.736;2023-11-21T07:27:51;8.85;;;3.40;;
78489;SDS011;67776;52.012;4.736;2023-11-21T07:30:17;8.23;;;2.80;;
78489;SDS011;67776;52.012;4.736;2023-11-21T07:32:43;10.20;;;3.10;;
78489;SDS011;67776;52.012;4.736;2023-11-21T07:35:09;11.30;;;3.20;;
78489;SDS011;67776;52.012;4.736;2023-11-21T07:37:35;10.27;;;3.10;;
78489;SDS011;67776;52.012;4.736;2023-11-21T07:40:00;8.90;;;3.20;;
78489;SDS011;67776;52.012;4.736;2023-11-21T07:42:26;8.53;;;2.40;;
78489;SDS011;67776;52.012;4.736;2023-11-21T07:44:51;11.27;;;2.97;;
78489;SDS011;67776;52.012;4.736;2023-11-21T07:47:17;12.10;;;3.10;;
78489;SDS011;67776;52.012;4.736;2023-11-21T07:49:42;8.57;;;3.17;;
78489;SDS011;67776;52.012;4.736;2023-11-21T07:52:09;13.48;;;2.97;;
78489;SDS011;67776;52.012;4.736;2023-11-21T07:54:34;9.60;;;2.60;;
78489;SDS011;67776;52.012;4.736;2023-11-21T07:57:00;9.40;;;2.97;;
78489;SDS011;67776;52.012;4.736;2023-11-21T07:59:26;13.43;;;3.08;;
78489;SDS011;67776;52.012;4.736;2023-11-21T08:01:51;7.23;;;2.23;;
78489;SDS011;67776;52.012;4.736;2023-11-21T08:04:17;7.40;;;2.70;;
78489;SDS011;67776;52.012;4.736;2023-11-21T08:06:42;9.93;;;2.60;;
78489;SDS011;67776;52.012;4.736;2023-11-21T08:09:07;9.33;;;2.77;;
78489;SDS011;67776;52.012;4.736;2023-11-21T08:11:33;13.75;;;3.08;;
78489;SDS011;67776;52.012;4.736;2023-11-21T08:13:58;8.80;;;2.77;;
78489;SDS011;67776;52.012;4.736;2023-11-21T08:16:24;10.13;;;3.00;;
78489;SDS011;67776;52.012;4.736;2023-11-21T08:18:50;13.93;;;3.53;;
78489;SDS011;67776;52.012;4.736;2023-11-21T08:21:16;11.88;;;3.35;;
78489;SDS011;67776;52.012;4.736;2023-11-21T08:23:41;10.63;;;3.60;;
78489;SDS011;67776;52.012;4.736;2023-11-21T08:26:06;12.67;;;3.93;;
78489;SDS011;67776;52.012;4.736;2023-11-21T08:28:33;13.00;;;4.22;;
78489;SDS011;67776;52.012;4.736;2023-11-21T08:31:00;10.57;;;3.83;;
78489;SDS011;67776;52.012;4.736;2023-11-21T08:33:26;14.32;;;4.20;;
78489;SDS011;67776;52.012;4.736;2023-11-21T08:35:51;16.17;;;4.23;;
78489;SDS011;67776;52.012;4.736;2023-11-21T08:38:16;12.73;;;4.27;;
78489;SDS011;67776;52.012;4.736;2023-11-21T08:40:42;12.10;;;4.10;;
78489;SDS011;67776;52.012;4.736;2023-11-21T08:43:08;12.37;;;4.30;;
78489;SDS011;67776;52.012;4.736;2023-11-21T08:45:33;12.07;;;4.10;;
78489;SDS011;67776;52.012;4.736;2023-11-21T08:48:02;11.80;;;4.20;;
78489;SDS011;67776;52.012;4.736;2023-11-21T08:50:28;13.13;;;4.55;;
78489;SDS011;67776;52.012;4.736;2023-11-21T08:52:53;13.00;;;4.70;;
78489;SDS011;67776;52.012;4.736;2023-11-21T08:55:19;13.20;;;4.65;;
78489;SDS011;67776;52.012;4.736;2023-11-21T08:57:45;13.80;;;4.80;;
78489;SDS011;67776;52.012;4.736;2023-11-21T09:00:11;15.65;;;4.72;;
78489;SDS011;67776;52.012;4.736;2023-11-21T09:02:40;12.93;;;4.43;;
78489;SDS011;67776;52.012;4.736;2023-11-21T09:05:09;17.07;;;4.33;;
78489;SDS011;67776;52.012;4.736;2023-11-21T09:07:36;15.55;;;4.93;;
78489;SDS011;67776;52.012;4.736;2023-11-21T09:10:02;15.50;;;4.95;;
78489;SDS011;67776;52.012;4.736;2023-11-21T09:12:28;16.40;;;5.05;;
78489;SDS011;67776;52.012;4.736;2023-11-21T09:14:53;12.77;;;4.40;;
78489;SDS011;67776;52.012;4.736;2023-11-21T09:17:19;14.63;;;5.13;;
78489;SDS011;67776;52.012;4.736;2023-11-21T09:19:44;16.07;;;4.23;;
78489;SDS011;67776;52.012;4.736;2023-11-21T09:22:12;14.25;;;4.70;;
78489;SDS011;67776;52.012;4.736;2023-11-21T09:24:37;17.03;;;4.27;;
78489;SDS011;67776;52.012;4.736;2023-11-21T09:27:03;10.90;;;3.77;;
78489;SDS011;67776;52.012;4.736;2023-11-21T09:29:30;13.52;;;3.70;;
78489;SDS011;67776;52.012;4.736;2023-11-21T09:31:56;10.88;;;3.28;;
78489;SDS011;67776;52.012;4.736;2023-11-21T09:34:24;11.57;;;3.10;;
78489;SDS011;67776;52.012;4.736;2023-11-21T09:36:50;10.00;;;3.05;;
78489;SDS011;67776;52.012;4.736;2023-11-21T09:39:16;10.77;;;2.93;;
78489;SDS011;67776;52.012;4.736;2023-11-21T09:41:43;8.85;;;2.70;;
78489;SDS011;67776;52.012;4.736;2023-11-21T09:44:14;9.88;;;2.42;;
78489;SDS011;67776;52.012;4.736;2023-11-21T09:46:43;7.78;;;2.10;;
78489;SDS011;67776;52.012;4.736;2023-11-21T09:49:13;10.75;;;2.45;;
78489;SDS011;67776;52.012;4.736;2023-11-21T09:51:39;8.57;;;2.50;;
78489;SDS011;67776;52.012;4.736;2023-11-21T09:54:08;9.93;;;2.58;;
78489;SDS011;67776;52.012;4.736;2023-11-21T09:56:35;10.57;;;2.47;;
78489;SDS011;67776;52.012;4.736;2023-11-21T09:59:02;9.60;;;2.70;;
78489;SDS011;67776;52.012;4.736;2023-11-21T10:01:31;11.05;;;2.72;;
78489;SDS011;67776;52.012;4.736;2023-11-21T10:03:57;9.60;;;2.57;;
78489;SDS011;67776;52.012;4.736;2023-11-21T10:06:24;9.20;;;2.22;;
78489;SDS011;67776;52.012;4.736;2023-11-21T10:08:52;9.70;;;2.70;;
78489;SDS011;67776;52.012;4.736;2023-11-21T10:11:18;9.18;;;2.78;;
78489;SDS011;67776;52.012;4.736;2023-11-21T10:13:45;9.93;;;2.30;;
78489;SDS011;67776;52.012;4.736;2023-11-21T10:16:12;8.00;;;2.00;;
78489;SDS011;67776;52.012;4.736;2023-11-21T10:18:41;8.88;;;1.83;;
78489;SDS011;67776;52.012;4.736;2023-11-21T10:21:07;9.15;;;2.58;;
78489;SDS011;67776;52.012;4.736;2023-11-21T10:23:34;9.73;;;2.90;;
78489;SDS011;67776;52.012;4.736;2023-11-21T10:25:59;10.40;;;2.85;;
78489;SDS011;67776;52.012;4.736;2023-11-21T10:28:25;11.47;;;2.97;;
78489;SDS011;67776;52.012;4.736;2023-11-21T10:30:50;9.53;;;3.00;;
78489;SDS011;67776;52.012;4.736;2023-11-21T10:33:17;12.15;;;3.42;;
78489;SDS011;67776;52.012;4.736;2023-11-21T10:35:51;12.70;;;3.10;;
78489;SDS011;67776;52.012;4.736;2023-11-21T10:38:19;11.40;;;2.90;;
78489;SDS011;67776;52.012;4.736;2023-11-21T10:40:49;9.67;;;2.97;;
78489;SDS011;67776;52.012;4.736;2023-11-21T10:43:15;10.52;;;3.30;;
78489;SDS011;67776;52.012;4.736;2023-11-21T10:45:41;14.65;;;3.40;;
78489;SDS011;67776;52.012;4.736;2023-11-21T10:48:10;14.73;;;3.70;;
78489;SDS011;67776;52.012;4.736;2023-11-21T10:50:41;11.43;;;3.08;;
78489;SDS011;67776;52.012;4.736;2023-11-21T10:53:07;12.18;;;2.95;;
78489;SDS011;67776;52.012;4.736;2023-11-21T10:55:33;11.85;;;3.90;;
78489;SDS011;67776;52.012;4.736;2023-11-21T10:58:00;13.17;;;3.83;;
78489;SDS011;67776;52.012;4.736;2023-11-21T11:00:27;12.10;;;3.65;;
78489;SDS011;67776;52.012;4.736;2023-11-21T11:02:54;13.15;;;4.18;;
78489;SDS011;67776;52.012;4.736;2023-11-21T11:05:20;15.10;;;4.20;;
78489;SDS011;67776;52.012;4.736;2023-11-21T11:07:49;14.65;;;4.75;;
78489;SDS011;67776;52.012;4.736;2023-11-21T11:10:20;19.87;;;5.00;;
78489;SDS011;67776;52.012;4.736;2023-11-21T11:12:47;16.98;;;5.20;;
78489;SDS011;67776;52.012;4.736;2023-11-21T11:15:14;16.73;;;5.00;;
78489;SDS011;67776;52.012;4.736;2023-11-21T11:17:41;17.20;;;5.30;;
78489;SDS011;67776;52.012;4.736;2023-11-21T11:20:08;13.65;;;4.30;;
78489;SDS011;67776;52.012;4.736;2023-11-21T11:22:37;15.23;;;3.97;;
78489;SDS011;67776;52.012;4.736;2023-11-21T11:28:10;18.17;;;4.82;;
78489;SDS011;67776;52.012;4.736;2023-11-21T11:31:01;14.20;;;4.88;;
78489;SDS011;67776;52.012;4.736;2023-11-21T11:33:39;13.52;;;4.30;;
78489;SDS011;67776;52.012;4.736;2023-11-21T11:42:05;13.82;;;4.32;;
78489;SDS011;67776;52.012;4.736;2023-11-21T11:44:53;14.45;;;4.40;;
78489;SDS011;67776;52.012;4.736;2023-11-21T11:47:27;11.50;;;3.50;;
78489;SDS011;67776;52.012;4.736;2023-11-21T11:49:58;12.27;;;3.40;;
78489;SDS011;67776;52.012;4.736;2023-11-21T11:52:40;14.55;;;3.30;;
78489;SDS011;67776;52.012;4.736;2023-11-21T11:55:07;11.65;;;3.80;;
78489;SDS011;67776;52.012;4.736;2023-11-21T11:57:35;11.65;;;3.45;;
78489;SDS011;67776;52.012;4.736;2023-11-21T12:02:47;13.43;;;3.45;;
78489;SDS011;67776;52.012;4.736;2023-11-21T12:05:14;12.40;;;3.75;;
78489;SDS011;67776;52.012;4.736;2023-11-21T12:07:49;12.23;;;4.03;;
78489;SDS011;67776;52.012;4.736;2023-11-21T12:10:15;12.53;;;3.60;;
78489;SDS011;67776;52.012;4.736;2023-11-21T12:12:45;14.10;;;4.35;;
78489;SDS011;67776;52.012;4.736;2023-11-21T12:15:15;11.75;;;3.63;;
78489;SDS011;67776;52.012;4.736;2023-11-21T12:17:41;9.35;;;3.17;;
78489;SDS011;67776;52.012;4.736;2023-11-21T12:20:08;11.90;;;3.10;;
78489;SDS011;67776;52.012;4.736;2023-11-21T12:22:40;13.27;;;3.77;;
78489;SDS011;67776;52.012;4.736;2023-11-21T12:25:07;12.40;;;3.45;;
78489;SDS011;67776;52.012;4.736;2023-11-21T12:27:33;12.00;;;3.57;;
78489;SDS011;67776;52.012;4.736;2023-11-21T12:29:58;12.23;;;3.70;;
78489;SDS011;67776;52.012;4.736;2023-11-21T12:32:24;11.30;;;3.70;;
78489;SDS011;67776;52.012;4.736;2023-11-21T12:34:50;13.90;;;3.92;;
78489;SDS011;67776;52.012;4.736;2023-11-21T12:37:16;15.98;;;3.97;;
78489;SDS011;67776;52.012;4.736;2023-11-21T12:39:42;14.63;;;4.63;;
78489;SDS011;67776;52.012;4.736;2023-11-21T12:42:07;14.07;;;4.57;;
78489;SDS011;67776;52.012;4.736;2023-11-21T12:44:32;14.83;;;4.40;;
78489;SDS011;67776;52.012;4.736;2023-11-21T12:46:58;12.77;;;4.05;;
78489;SDS011;67776;52.012;4.736;2023-11-21T12:49:24;16.30;;;4.47;;
78489;SDS011;67776;52.012;4.736;2023-11-21T12:51:50;13.15;;;3.75;;
78489;SDS011;67776;52.012;4.736;2023-11-21T12:54:15;16.23;;;4.50;;
78489;SDS011;67776;52.012;4.736;2023-11-21T12:56:44;12.15;;;4.03;;
78489;SDS011;67776;52.012;4.736;2023-11-21T12:59:12;13.75;;;4.63;;
78489;SDS011;67776;52.012;4.736;2023-11-21T13:01:41;11.23;;;4.03;;
78489;SDS011;67776;52.012;4.736;2023-11-21T13:04:07;11.80;;;4.53;;
78489;SDS011;67776;52.012;4.736;2023-11-21T13:06:32;15.90;;;4.47;;
78489;SDS011;67776;52.012;4.736;2023-11-21T13:09:03;14.85;;;5.05;;
78489;SDS011;67776;52.012;4.736;2023-11-21T13:11:30;13.65;;;4.60;;
78489;SDS011;67776;52.012;4.736;2023-11-21T13:13:59;13.80;;;4.30;;
78489;SDS011;67776;52.012;4.736;2023-11-21T13:16:25;14.52;;;4.53;;
78489;SDS011;67776;52.012;4.736;2023-11-21T13:18:51;15.47;;;4.20;;
78489;SDS011;67776;52.012;4.736;2023-11-21T13:21:17;15.27;;;4.63;;
78489;SDS011;67776;52.012;4.736;2023-11-21T13:23:43;11.83;;;4.23;;
78489;SDS011;67776;52.012;4.736;2023-11-21T13:26:10;13.45;;;4.68;;
78489;SDS011;67776;52.012;4.736;2023-11-21T13:28:37;14.05;;;4.72;;
78489;SDS011;67776;52.012;4.736;2023-11-21T13:31:03;16.33;;;4.87;;
78489;SDS011;67776;52.012;4.736;2023-11-21T13:33:45;17.48;;;4.53;;
78489;SDS011;67776;52.012;4.736;2023-11-21T13:36:16;18.27;;;5.13;;
78489;SDS011;67776;52.012;4.736;2023-11-21T13:38:47;17.80;;;5.22;;
78489;SDS011;67776;52.012;4.736;2023-11-21T13:41:13;19.33;;;5.37;;
78489;SDS011;67776;52.012;4.736;2023-11-21T13:43:39;15.88;;;5.68;;
78489;SDS011;67776;52.012;4.736;2023-11-21T13:46:04;17.93;;;6.37;;
78489;SDS011;67776;52.012;4.736;2023-11-21T13:48:38;17.48;;;5.05;;
78489;SDS011;67776;52.012;4.736;2023-11-21T13:51:08;16.77;;;5.43;;
78489;SDS011;67776;52.012;4.736;2023-11-21T13:53:42;16.98;;;5.72;;
78489;SDS011;67776;52.012;4.736;2023-11-21T13:56:10;15.52;;;5.25;;
78489;SDS011;67776;52.012;4.736;2023-11-21T13:58:36;17.65;;;5.60;;
78489;SDS011;67776;52.012;4.736;2023-11-21T14:01:20;18.30;;;6.20;;
78489;SDS011;67776;52.012;4.736;2023-11-21T14:03:56;17.70;;;5.90;;
78489;SDS011;67776;52.012;4.736;2023-11-21T14:06:27;22.48;;;6.50;;
78489;SDS011;67776;52.012;4.736;2023-11-21T14:08:59;21.48;;;6.38;;
78489;SDS011;67776;52.012;4.736;2023-11-21T14:11:30;17.50;;;6.38;;
78489;SDS011;67776;52.012;4.736;2023-11-21T14:13:56;16.23;;;6.43;;
78489;SDS011;67776;52.012;4.736;2023-11-21T14:16:21;16.53;;;6.03;;
78489;SDS011;67776;52.012;4.736;2023-11-21T14:18:47;21.67;;;6.30;;
78489;SDS011;67776;52.012;4.736;2023-11-21T14:21:18;17.77;;;6.20;;
78489;SDS011;67776;52.012;4.736;2023-11-21T14:23:43;15.73;;;5.30;;
78489;SDS011;67776;52.012;4.736;2023-11-21T14:26:10;17.57;;;5.67;;
78489;SDS011;67776;52.012;4.736;2023-11-21T14:28:39;17.50;;;5.10;;
78489;SDS011;67776;52.012;4.736;2023-11-21T14:31:04;19.47;;;6.07;;
78489;SDS011;67776;52.012;4.736;2023-11-21T14:33:29;16.63;;;5.20;;
78489;SDS011;67776;52.012;4.736;2023-11-21T14:35:55;17.63;;;5.17;;
78489;SDS011;67776;52.012;4.736;2023-11-21T14:38:22;20.73;;;5.90;;
78489;SDS011;67776;52.012;4.736;2023-11-21T14:40:47;15.53;;;5.43;;
78489;SDS011;67776;52.012;4.736;2023-11-21T14:43:14;20.52;;;6.00;;
78489;SDS011;67776;52.012;4.736;2023-11-21T14:45:39;20.23;;;5.47;;